Time;durP1;ratioP1;P1;durP2;ratioP2;P2;SDS_P1;SDS_P2;PMS_P1;PMS_P2;Temp;Humidity;BMP_temperature;BMP_pressure;BME280_temperature;BME280_humidity;BME280_pressure;Samples;Min_cycle;Max_cycle;Signal;HPM_P1;HPM_P2
2021/01/12 00:01:47;;;;;;;16.25;8.85;;;5.00;82.40;;;;;;5061244;28;20029;-73
2021/01/12 00:04:12;;;;;;;13.45;8.48;;;5.00;82.40;;;;;;5051348;28;20049;-73
2021/01/12 00:06:40;;;;;;;15.15;9.27;;;5.00;82.50;;;;;;5061937;28;20126;-72
2021/01/12 00:09:06;;;;;;;14.75;8.20;;;5.00;82.30;;;;;;5066975;28;20045;-73
2021/01/12 00:11:31;;;;;;;14.60;7.97;;;4.90;82.50;;;;;;5060302;28;20119;-73
2021/01/12 00:13:57;;;;;;;14.95;8.77;;;4.90;82.70;;;;;;5070763;28;20468;-73
2021/01/12 00:16:23;;;;;;;14.90;8.43;;;4.90;82.90;;;;;;5058417;28;20032;-72
2021/01/12 00:18:48;;;;;;;13.73;8.45;;;4.80;82.80;;;;;;5069921;28;20028;-73
2021/01/12 00:21:18;;;;;;;15.90;9.00;;;4.90;82.90;;;;;;5062609;28;20025;-74
2021/01/12 00:23:43;;;;;;;15.55;8.68;;;4.90;83.10;;;;;;5051178;28;20033;-72
2021/01/12 00:26:09;;;;;;;16.45;8.50;;;4.90;82.90;;;;;;5053409;28;20116;-73
2021/01/12 00:28:35;;;;;;;13.48;8.43;;;4.80;83.30;;;;;;5052243;28;20533;-72
2021/01/12 00:31:04;;;;;;;14.93;9.25;;;4.80;83.20;;;;;;5056973;28;20402;-74
2021/01/12 00:33:36;;;;;;;13.57;8.50;;;4.80;83.30;;;;;;5070301;28;20036;-74
2021/01/12 00:36:04;;;;;;;15.85;9.15;;;4.80;83.50;;;;;;5067393;28;20059;-73
2021/01/12 00:38:30;;;;;;;13.07;8.68;;;4.70;83.70;;;;;;5051410;28;20036;-73
2021/01/12 00:40:55;;;;;;;16.92;10.27;;;4.80;83.70;;;;;;5055688;28;20028;-72
2021/01/12 00:43:24;;;;;;;13.98;8.20;;;4.80;83.80;;;;;;5054850;28;20032;-73
2021/01/12 00:45:49;;;;;;;15.35;9.48;;;4.80;83.80;;;;;;5055380;28;20096;-72
2021/01/12 00:48:15;;;;;;;15.13;8.88;;;4.80;83.80;;;;;;5071289;28;20092;-73
2021/01/12 00:50:40;;;;;;;13.77;8.65;;;4.80;83.90;;;;;;5066478;28;20054;-73
2021/01/12 00:53:06;;;;;;;13.68;7.90;;;4.80;84.10;;;;;;5050804;28;20032;-74
2021/01/12 00:55:31;;;;;;;15.50;8.90;;;4.80;84.10;;;;;;5050852;28;20120;-73
2021/01/12 00:57:56;;;;;;;14.80;8.00;;;4.80;84.20;;;;;;5070591;28;20027;-74
2021/01/12 01:00:22;;;;;;;17.25;9.05;;;4.90;84.30;;;;;;5070371;28;20103;-73
2021/01/12 01:02:48;;;;;;;16.02;9.00;;;4.90;84.30;;;;;;5078992;28;20392;-72
2021/01/12 01:05:13;;;;;;;13.55;9.18;;;4.90;84.30;;;;;;5085706;28;20021;-73
2021/01/12 01:07:39;;;;;;;13.85;8.60;;;4.90;84.40;;;;;;5055609;28;20493;-69
2021/01/12 03:42:48;;;;;;;19.25;10.35;;;4.30;93.90;;;;;;5042452;28;20080;-68
2021/01/12 03:45:14;;;;;;;17.80;11.60;;;4.30;93.90;;;;;;5067715;28;20112;-67
2021/01/12 03:47:40;;;;;;;17.13;10.98;;;4.40;94.00;;;;;;5051772;28;20127;-68
2021/01/12 03:50:08;;;;;;;18.10;11.27;;;4.40;94.10;;;;;;5064892;28;20037;-68
2021/01/12 03:52:34;;;;;;;16.63;10.48;;;4.40;94.40;;;;;;5071706;28;20459;-68
2021/01/12 03:55:00;;;;;;;16.33;10.95;;;4.40;94.20;;;;;;5068421;28;20036;-68
2021/01/12 03:57:25;;;;;;;16.42;10.73;;;4.50;94.30;;;;;;5071442;28;20060;-68
2021/01/12 03:59:51;;;;;;;19.15;11.68;;;4.40;94.40;;;;;;5056832;28;20074;-68
2021/01/12 04:02:16;;;;;;;18.52;11.70;;;4.50;94.40;;;;;;5061038;28;20086;-68
2021/01/12 04:04:43;;;;;;;17.98;11.00;;;4.50;94.40;;;;;;5061498;28;20383;-68
2021/01/12 04:07:09;;;;;;;17.73;10.77;;;4.50;94.50;;;;;;5051696;28;20417;-68
2021/01/12 04:09:35;;;;;;;18.83;12.30;;;4.50;94.40;;;;;;5049609;28;20127;-68
2021/01/12 04:12:00;;;;;;;18.80;12.68;;;4.50;94.40;;;;;;5051432;28;20036;-68
2021/01/12 04:14:26;;;;;;;18.55;11.77;;;4.60;94.50;;;;;;5059017;28;20421;-68
2021/01/12 04:16:51;;;;;;;19.45;12.20;;;4.60;94.50;;;;;;5071488;28;20028;-69
2021/01/12 04:19:17;;;;;;;18.88;11.80;;;4.60;94.50;;;;;;5071615;28;20036;-69
2021/01/12 04:21:42;;;;;;;19.63;11.98;;;4.70;94.50;;;;;;5062298;28;20025;-69
2021/01/12 04:24:08;;;;;;;20.73;12.07;;;4.60;94.60;;;;;;5062131;28;20035;-69
2021/01/12 04:26:33;;;;;;;18.80;12.13;;;4.60;94.60;;;;;;5051214;28;20029;-69
2021/01/12 04:28:59;;;;;;;21.35;12.88;;;4.60;94.60;;;;;;5052227;28;20036;-69
2021/01/12 04:31:25;;;;;;;18.48;11.57;;;4.70;94.60;;;;;;5052045;28;20024;-69
2021/01/12 04:33:51;;;;;;;19.05;12.73;;;4.60;94.70;;;;;;5063762;28;20024;-69
2021/01/12 04:36:16;;;;;;;19.95;11.95;;;4.60;94.70;;;;;;5050465;28;20110;-69
2021/01/12 04:38:42;;;;;;;18.25;11.82;;;4.60;94.70;;;;;;5050191;28;20469;-69
2021/01/12 04:41:07;;;;;;;21.02;12.38;;;4.60;94.80;;;;;;5070308;28;20033;-68
2021/01/12 04:43:33;;;;;;;18.55;11.55;;;4.60;94.90;;;;;;5084104;28;20397;-68
2021/01/12 04:45:58;;;;;;;21.63;12.43;;;4.60;94.90;;;;;;5070663;28;20036;-68
2021/01/12 04:48:24;;;;;;;18.42;12.38;;;4.60;95.00;;;;;;5069302;28;20068;-68
2021/01/12 04:51:01;;;;;;;18.88;11.98;;;4.60;94.90;;;;;;5049685;28;20029;-68
2021/01/12 04:53:48;;;;;;;17.98;12.05;;;4.60;94.90;;;;;;5051602;28;20098;-68
2021/01/12 04:56:18;;;;;;;21.75;12.95;;;4.60;94.90;;;;;;5051265;28;20041;-69
2021/01/12 04:58:49;;;;;;;19.02;11.95;;;4.60;94.90;;;;;;5051117;28;20033;-68
2021/01/12 05:01:17;;;;;;;18.55;11.98;;;4.60;95.00;;;;;;5050626;28;20039;-68
2021/01/12 05:03:44;;;;;;;19.63;11.88;;;4.60;94.90;;;;;;5051368;28;20028;-68
2021/01/12 05:06:14;;;;;;;19.40;11.55;;;4.60;95.00;;;;;;5051029;28;20025;-68
2021/01/12 05:08:54;;;;;;;18.67;11.90;;;4.60;95.00;;;;;;5052837;28;20432;-69
2021/01/12 05:11:31;;;;;;;18.65;11.82;;;4.60;95.00;;;;;;5051101;28;20031;-68
2021/01/12 05:14:01;;;;;;;20.77;12.50;;;4.70;95.10;;;;;;5051064;28;20446;-69
2021/01/12 05:16:27;;;;;;;18.85;12.15;;;4.70;95.10;;;;;;5051136;28;20041;-68
2021/01/12 05:18:54;;;;;;;19.67;12.70;;;4.70;95.10;;;;;;5051138;28;20031;-68
2021/01/12 05:21:23;;;;;;;19.52;12.75;;;4.70;95.10;;;;;;5051144;28;20025;-68
2021/01/12 05:24:06;;;;;;;18.52;12.93;;;4.70;95.10;;;;;;5064705;28;20082;-68
2021/01/12 05:26:34;;;;;;;18.92;11.80;;;4.80;95.10;;;;;;5049878;28;20059;-68
2021/01/12 05:29:04;;;;;;;18.20;12.40;;;4.70;95.10;;;;;;5050233;28;20067;-68
2021/01/12 05:31:30;;;;;;;19.42;12.27;;;4.70;95.10;;;;;;5050711;28;20029;-68
2021/01/12 05:34:09;;;;;;;19.60;12.65;;;4.70;95.20;;;;;;5050244;28;20035;-68
2021/01/12 05:36:47;;;;;;;20.15;12.32;;;4.80;95.30;;;;;;5050727;28;20025;-68
2021/01/12 05:39:21;;;;;;;17.50;11.88;;;4.80;95.30;;;;;;5052162;28;20059;-68
2021/01/12 05:41:49;;;;;;;17.25;11.85;;;4.80;95.20;;;;;;5050632;28;20045;-68
2021/01/12 05:44:20;;;;;;;18.48;12.25;;;4.70;95.20;;;;;;5050142;28;20124;-68
2021/01/12 05:46:47;;;;;;;19.55;12.50;;;4.70;95.20;;;;;;5052399;28;20438;-68
2021/01/12 05:49:17;;;;;;;19.23;11.43;;;4.70;95.30;;;;;;5054128;28;20043;-69
2021/01/12 05:51:44;;;;;;;17.00;11.55;;;4.70;95.30;;;;;;5054330;28;20111;-68
2021/01/12 05:54:29;;;;;;;17.63;11.82;;;4.70;95.30;;;;;;5062180;28;20028;-68
2021/01/12 05:57:00;;;;;;;18.35;11.45;;;4.70;95.30;;;;;;5074455;28;20034;-69
2021/01/12 05:59:27;;;;;;;18.00;11.82;;;4.70;95.30;;;;;;5057449;28;20501;-70
2021/01/12 06:02:09;;;;;;;20.38;12.50;;;4.70;95.40;;;;;;5052834;28;20036;-69
2021/01/12 06:04:36;;;;;;;18.05;12.30;;;4.70;95.40;;;;;;5053771;28;20029;-68
2021/01/12 06:07:04;;;;;;;20.05;11.77;;;4.80;95.40;;;;;;5052764;28;20040;-68
2021/01/12 06:09:29;;;;;;;19.05;11.82;;;4.80;95.40;;;;;;5060846;28;20404;-68
2021/01/12 06:11:57;;;;;;;17.10;11.40;;;4.80;95.40;;;;;;5054034;28;20021;-68
2021/01/12 06:14:27;;;;;;;18.63;11.60;;;4.80;95.40;;;;;;5053825;28;20127;-68
2021/01/12 06:16:53;;;;;;;18.83;12.02;;;4.80;95.40;;;;;;5053928;28;20029;-68
2021/01/12 06:19:20;;;;;;;19.52;12.40;;;4.80;95.40;;;;;;5056664;28;20097;-68
2021/01/12 06:21:54;;;;;;;16.25;11.13;;;4.80;95.40;;;;;;5053546;28;20048;-68
2021/01/12 06:24:35;;;;;;;17.67;11.63;;;4.70;95.50;;;;;;5061883;28;20119;-69
2021/01/12 06:27:02;;;;;;;16.92;11.27;;;4.80;95.50;;;;;;5073260;28;20126;-68
2021/01/12 06:29:30;;;;;;;16.05;10.77;;;4.80;95.60;;;;;;5044234;28;20044;-69
2021/01/12 06:31:57;;;;;;;19.23;12.30;;;4.80;95.60;;;;;;5062696;28;20070;-68
2021/01/12 06:34:23;;;;;;;16.90;11.32;;;4.80;95.60;;;;;;5080675;28;20028;-69
2021/01/12 06:36:55;;;;;;;18.35;12.15;;;4.80;95.60;;;;;;5073002;28;20064;-69
2021/01/12 06:39:28;;;;;;;17.15;11.88;;;4.80;95.60;;;;;;5053113;28;20040;-69
2021/01/12 06:41:54;;;;;;;17.90;10.85;;;4.80;95.60;;;;;;5058385;28;20116;-69
2021/01/12 06:44:22;;;;;;;17.70;11.52;;;4.80;95.60;;;;;;5062799;28;20560;-69
2021/01/12 06:46:50;;;;;;;19.52;12.25;;;4.80;95.60;;;;;;5071632;28;20032;-68
2021/01/12 06:49:18;;;;;;;17.35;12.13;;;4.80;95.60;;;;;;5062273;28;20132;-69
2021/01/12 06:51:43;;;;;;;18.45;11.07;;;4.80;95.60;;;;;;5052850;28;20054;-69
2021/01/12 06:54:13;;;;;;;14.88;10.85;;;4.80;95.60;;;;;;5065437;28;20111;-69
2021/01/12 06:56:41;;;;;;;17.45;11.85;;;4.80;95.70;;;;;;5072982;28;20122;-69
2021/01/12 06:59:14;;;;;;;15.85;10.63;;;4.90;95.80;;;;;;5063360;28;20036;-69
2021/01/12 07:01:40;;;;;;;15.10;10.45;;;4.80;95.70;;;;;;5061912;28;20442;-69
2021/01/12 07:04:06;;;;;;;16.52;11.98;;;4.90;95.70;;;;;;5058841;28;20107;-69
2021/01/12 07:06:33;;;;;;;16.80;10.70;;;4.90;95.70;;;;;;5072716;28;20054;-69
2021/01/12 07:09:01;;;;;;;15.02;10.40;;;4.90;95.70;;;;;;5069755;28;20037;-69
2021/01/12 07:11:27;;;;;;;13.95;9.90;;;4.90;95.70;;;;;;5072552;28;20020;-69
2021/01/12 07:13:52;;;;;;;15.40;10.77;;;4.90;95.70;;;;;;5059633;28;20032;-69
2021/01/12 07:16:18;;;;;;;14.48;10.00;;;4.90;95.80;;;;;;5052657;28;20029;-69
2021/01/12 07:18:57;;;;;;;16.83;11.25;;;4.90;95.80;;;;;;5052009;28;20025;-69
2021/01/12 07:21:36;;;;;;;13.90;10.15;;;5.00;95.80;;;;;;5052480;28;20330;-69
2021/01/12 07:24:02;;;;;;;15.27;10.55;;;5.00;95.80;;;;;;5051890;28;20052;-69
2021/01/12 07:26:31;;;;;;;16.33;10.90;;;4.90;95.80;;;;;;5052199;28;20432;-70
2021/01/12 07:29:04;;;;;;;13.98;10.50;;;4.90;95.90;;;;;;5054943;28;20500;-69
2021/01/12 07:31:30;;;;;;;16.08;10.38;;;5.00;95.90;;;;;;5057032;28;20350;-70
2021/01/12 07:33:56;;;;;;;15.57;10.90;;;5.00;95.80;;;;;;5052193;28;20047;-70
2021/01/12 07:36:23;;;;;;;15.85;10.70;;;5.00;95.80;;;;;;5056098;28;20048;-69
2021/01/12 07:38:50;;;;;;;14.05;9.98;;;5.00;95.90;;;;;;5066816;28;20087;-69
2021/01/12 07:41:17;;;;;;;17.42;10.02;;;5.00;95.90;;;;;;5066471;28;20086;-70
2021/01/12 07:43:42;;;;;;;15.20;10.32;;;5.00;95.90;;;;;;5064361;28;20048;-69
2021/01/12 07:46:08;;;;;;;13.93;9.38;;;5.00;96.00;;;;;;5062874;28;20389;-69
2021/01/12 07:48:34;;;;;;;13.85;9.48;;;4.90;95.90;;;;;;5068806;28;20035;-69
2021/01/12 07:51:01;;;;;;;15.90;10.23;;;5.00;96.00;;;;;;5068201;28;20060;-69
2021/01/12 07:53:29;;;;;;;12.85;8.88;;;5.00;96.00;;;;;;5081812;28;20059;-69
2021/01/12 07:55:55;;;;;;;15.18;9.02;;;5.00;96.00;;;;;;5056936;28;20024;-69
2021/01/12 07:58:22;;;;;;;14.32;9.07;;;5.00;96.10;;;;;;5051079;28;20025;-69
2021/01/12 08:00:49;;;;;;;12.00;8.32;;;5.00;96.00;;;;;;5051812;28;20035;-69
2021/01/12 08:03:15;;;;;;;12.00;8.45;;;5.00;96.00;;;;;;5069315;28;20029;-69
2021/01/12 08:05:41;;;;;;;12.45;7.78;;;5.00;95.90;;;;;;5069725;28;20120;-70
2021/01/12 08:08:08;;;;;;;11.40;8.30;;;5.00;95.90;;;;;;5052022;28;20111;-70
2021/01/12 08:10:41;;;;;;;10.82;7.70;;;5.00;95.90;;;;;;5050437;28;20489;-70
2021/01/12 08:13:07;;;;;;;13.40;8.40;;;5.00;96.00;;;;;;5050235;28;20032;-69
2021/01/12 08:15:35;;;;;;;11.95;8.63;;;5.00;96.00;;;;;;5051342;28;20183;-68
2021/01/12 08:18:03;;;;;;;10.07;7.35;;;5.00;96.00;;;;;;5051670;28;20048;-68
2021/01/12 08:20:30;;;;;;;11.63;7.40;;;5.00;96.00;;;;;;5050191;28;20469;-68
2021/01/12 08:22:56;;;;;;;11.73;7.55;;;5.10;96.10;;;;;;5052085;28;20519;-68
2021/01/12 08:25:23;;;;;;;12.90;8.18;;;5.10;96.10;;;;;;5060802;28;20055;-68
2021/01/12 08:27:50;;;;;;;10.30;7.60;;;5.10;96.00;;;;;;5051632;28;20036;-69
2021/01/12 08:30:23;;;;;;;9.50;6.88;;;5.10;96.10;;;;;;5061319;28;20053;-69
2021/01/12 08:32:56;;;;;;;9.63;6.78;;;5.10;96.10;;;;;;5050999;28;20028;-69
2021/01/12 08:35:25;;;;;;;10.63;6.53;;;5.20;96.00;;;;;;5053044;28;20053;-68
2021/01/12 08:37:53;;;;;;;9.65;6.57;;;5.20;96.00;;;;;;5073301;28;20118;-69
2021/01/12 08:40:19;;;;;;;8.15;5.85;;;5.20;96.20;;;;;;5068282;28;20129;-68
2021/01/12 08:42:45;;;;;;;6.97;5.40;;;5.20;95.90;;;;;;5056847;28;20032;-68
2021/01/12 08:45:16;;;;;;;9.93;6.20;;;5.30;95.90;;;;;;5050057;28;20045;-68
2021/01/12 08:47:42;;;;;;;7.53;5.20;;;5.20;95.90;;;;;;5063583;28;20086;-68
2021/01/12 08:50:09;;;;;;;8.80;5.28;;;5.20;95.90;;;;;;5069668;28;20036;-68
2021/01/12 08:52:38;;;;;;;8.07;5.60;;;5.20;95.90;;;;;;5065709;28;20048;-70
2021/01/12 08:55:20;;;;;;;8.20;5.72;;;5.20;96.00;;;;;;5055578;28;20039;-67
2021/01/12 08:58:00;;;;;;;10.63;6.10;;;5.20;96.00;;;;;;5050892;28;20108;-67
2021/01/12 09:00:34;;;;;;;7.53;5.30;;;5.20;96.10;;;;;;5068744;28;20029;-67
2021/01/12 09:03:00;;;;;;;9.25;6.40;;;5.20;96.10;;;;;;5058665;28;20481;-67
2021/01/12 09:05:29;;;;;;;7.68;5.13;;;5.30;96.00;;;;;;5068029;28;20029;-67
2021/01/12 09:08:16;;;;;;;6.90;5.13;;;5.30;96.00;;;;;;5060379;28;20485;-67
2021/01/12 09:10:42;;;;;;;6.22;4.55;;;5.30;96.00;;;;;;5068121;28;20504;-67
2021/01/12 09:13:09;;;;;;;7.15;5.20;;;5.30;95.90;;;;;;5050944;28;20025;-67
2021/01/12 09:15:40;;;;;;;6.63;4.55;;;5.40;95.80;;;;;;5050451;28;20041;-67
2021/01/12 09:18:20;;;;;;;7.03;4.80;;;5.40;95.80;;;;;;5062838;28;20036;-67
2021/01/12 09:21:03;;;;;;;6.95;4.70;;;5.40;96.00;;;;;;5050176;28;20687;-67
2021/01/12 09:23:29;;;;;;;6.05;4.13;;;5.40;95.80;;;;;;5053525;28;20025;-67
2021/01/12 09:26:03;;;;;;;5.78;4.32;;;5.40;95.80;;;;;;5074652;28;20059;-67
2021/01/12 09:28:35;;;;;;;7.00;4.30;;;5.50;95.80;;;;;;5053922;28;20536;-67
2021/01/12 09:31:16;;;;;;;6.43;4.70;;;5.40;95.80;;;;;;5054967;28;20075;-67
2021/01/12 09:33:49;;;;;;;6.38;4.13;;;5.40;95.80;;;;;;5052465;28;20187;-67
2021/01/12 09:36:17;;;;;;;7.30;4.95;;;5.40;95.80;;;;;;5054610;28;20028;-67
2021/01/12 09:38:47;;;;;;;5.70;4.10;;;5.50;95.90;;;;;;5065635;28;20052;-67
2021/01/12 09:41:14;;;;;;;7.15;4.88;;;5.50;95.90;;;;;;5073441;28;20097;-66
2021/01/12 09:43:40;;;;;;;6.28;4.57;;;5.50;95.80;;;;;;5069388;28;20044;-66
2021/01/12 09:46:07;;;;;;;6.07;4.35;;;5.50;95.80;;;;;;5052938;28;20074;-66
2021/01/12 09:48:32;;;;;;;6.32;4.50;;;5.60;95.80;;;;;;5054077;28;20052;-68
2021/01/12 09:50:58;;;;;;;5.72;4.10;;;5.60;95.90;;;;;;5066632;28;20017;-68
2021/01/12 09:53:24;;;;;;;6.55;3.95;;;5.50;95.80;;;;;;5071582;28;20036;-67
2021/01/12 09:55:50;;;;;;;6.70;4.40;;;5.60;95.80;;;;;;5073618;28;20123;-67
2021/01/12 09:58:15;;;;;;;6.18;4.15;;;5.50;95.80;;;;;;5070555;28;20073;-67
2021/01/12 10:00:41;;;;;;;7.45;4.60;;;5.60;95.80;;;;;;5053928;28;20504;-66
2021/01/12 10:03:07;;;;;;;5.68;3.80;;;5.60;95.80;;;;;;5067287;28;20036;-67
2021/01/12 10:05:40;;;;;;;6.50;4.13;;;5.60;95.90;;;;;;5053162;28;20504;-67
2021/01/12 10:08:07;;;;;;;6.20;4.00;;;5.70;95.80;;;;;;5053654;28;20024;-67
2021/01/12 10:10:34;;;;;;;5.20;3.78;;;5.70;95.70;;;;;;5054042;28;20040;-68
2021/01/12 10:13:00;;;;;;;5.28;4.13;;;5.70;95.70;;;;;;5053571;28;20032;-68
2021/01/12 10:15:26;;;;;;;7.65;4.25;;;5.70;95.70;;;;;;5054456;28;20036;-65
2021/01/12 10:17:51;;;;;;;7.80;4.80;;;5.70;95.70;;;;;;5052615;28;20025;-67
2021/01/12 10:20:17;;;;;;;8.43;5.80;;;5.70;95.80;;;;;;5053431;28;20110;-66
2021/01/12 10:22:42;;;;;;;8.90;5.65;;;5.70;95.70;;;;;;5053514;28;20028;-66
2021/01/12 10:25:08;;;;;;;9.15;5.88;;;5.70;95.70;;;;;;5052480;28;20029;-66
2021/01/12 10:27:36;;;;;;;8.07;4.32;;;5.70;95.70;;;;;;5053018;28;20032;-66
2021/01/12 10:30:03;;;;;;;6.25;4.30;;;5.70;95.70;;;;;;5053300;28;20119;-66
2021/01/12 10:32:29;;;;;;;6.47;4.32;;;5.60;95.70;;;;;;5052742;28;20044;-64
2021/01/12 10:34:54;;;;;;;8.60;4.97;;;5.60;95.80;;;;;;5056745;28;20021;-67
2021/01/12 10:37:20;;;;;;;6.35;4.35;;;5.60;95.90;;;;;;5067745;28;20028;-66
2021/01/12 10:39:45;;;;;;;6.10;4.70;;;5.70;95.90;;;;;;5059574;28;20043;-66
2021/01/12 10:42:11;;;;;;;7.38;4.45;;;5.70;95.90;;;;;;5054535;28;20028;-66
2021/01/12 10:44:36;;;;;;;9.30;4.32;;;5.70;95.90;;;;;;5056549;28;20052;-67
2021/01/12 10:47:02;;;;;;;5.68;3.88;;;5.70;95.90;;;;;;5065722;28;20123;-68
2021/01/12 10:49:27;;;;;;;6.13;4.30;;;5.80;95.90;;;;;;5062584;28;20041;-67
2021/01/12 10:52:01;;;;;;;6.25;4.30;;;5.80;95.80;;;;;;5052759;28;20036;-68
2021/01/12 10:54:27;;;;;;;8.40;4.28;;;5.80;95.80;;;;;;5062134;28;20117;-69
2021/01/12 10:56:53;;;;;;;6.35;4.50;;;5.80;95.90;;;;;;5070673;28;20044;-68
2021/01/12 10:59:19;;;;;;;7.30;4.22;;;5.90;95.90;;;;;;5062689;28;20036;-68
2021/01/12 11:01:51;;;;;;;5.97;4.28;;;5.80;95.90;;;;;;5052285;28;20025;-68
2021/01/12 11:04:17;;;;;;;7.20;4.28;;;5.90;95.90;;;;;;5060703;28;20047;-67
2021/01/12 11:06:42;;;;;;;6.13;4.45;;;5.90;95.90;;;;;;5065496;28;20016;-68
2021/01/12 11:09:07;;;;;;;6.35;4.13;;;5.90;95.90;;;;;;5068249;28;20128;-68
2021/01/12 11:11:36;;;;;;;6.13;3.78;;;6.00;95.90;;;;;;5071583;28;20028;-67
2021/01/12 11:14:03;;;;;;;6.15;3.70;;;6.00;95.90;;;;;;5061963;28;20028;-68
2021/01/12 11:16:36;;;;;;;6.72;4.10;;;6.00;95.80;;;;;;5066316;28;20035;-68
2021/01/12 11:19:02;;;;;;;5.50;3.80;;;6.00;95.90;;;;;;5063639;28;20037;-68
2021/01/12 11:21:29;;;;;;;6.32;4.28;;;6.10;95.90;;;;;;5055750;28;20046;-69
2021/01/12 11:23:54;;;;;;;6.55;4.10;;;6.10;95.90;;;;;;5065365;28;20033;-69
2021/01/12 11:26:28;;;;;;;7.13;4.38;;;6.10;95.80;;;;;;5054390;28;20086;-68
2021/01/12 11:28:53;;;;;;;6.15;4.10;;;6.10;95.80;;;;;;5058146;28;20051;-68
2021/01/12 11:31:19;;;;;;;6.05;4.53;;;6.10;95.80;;;;;;5055042;28;20033;-68
2021/01/12 11:33:44;;;;;;;7.93;4.68;;;6.20;95.80;;;;;;5056200;28;20481;-68
2021/01/12 11:36:10;;;;;;;6.25;4.22;;;6.20;95.80;;;;;;5071760;28;20017;-68
2021/01/12 11:38:35;;;;;;;6.45;4.47;;;6.20;95.80;;;;;;5066982;28;20074;-68
2021/01/12 11:41:01;;;;;;;6.47;4.05;;;6.20;95.80;;;;;;5052630;28;20047;-68
2021/01/12 11:43:26;;;;;;;6.15;3.90;;;6.20;95.80;;;;;;5054841;28;20437;-68
2021/01/12 11:45:52;;;;;;;8.27;4.68;;;6.20;95.70;;;;;;5069679;28;20119;-68
2021/01/12 11:48:17;;;;;;;7.03;4.68;;;6.30;95.70;;;;;;5069414;28;20059;-68
2021/01/12 11:50:43;;;;;;;5.82;4.20;;;6.30;95.70;;;;;;5054626;28;20020;-68
2021/01/12 11:53:08;;;;;;;6.68;4.00;;;6.30;95.70;;;;;;5062161;28;20033;-68
2021/01/12 11:55:40;;;;;;;6.28;4.03;;;6.30;95.70;;;;;;5069171;28;20024;-68
2021/01/12 11:58:06;;;;;;;5.65;4.35;;;6.30;95.80;;;;;;5058718;28;20028;-68
2021/01/12 12:00:32;;;;;;;6.93;4.18;;;6.30;95.80;;;;;;5050419;28;20028;-68
2021/01/12 12:02:57;;;;;;;5.53;4.00;;;6.30;95.70;;;;;;5069015;28;20024;-69
2021/01/12 12:05:23;;;;;;;5.80;3.80;;;6.40;95.70;;;;;;5064120;28;20031;-67
2021/01/12 12:07:48;;;;;;;6.05;4.00;;;6.40;95.70;;;;;;5055545;28;20036;-68
2021/01/12 12:10:14;;;;;;;6.40;4.05;;;6.40;95.70;;;;;;5054158;28;20032;-68
2021/01/12 12:12:39;;;;;;;6.32;3.72;;;6.40;95.70;;;;;;5050872;28;20397;-68
2021/01/12 12:15:06;;;;;;;7.15;3.95;;;6.40;95.70;;;;;;5065825;28;20032;-68
2021/01/12 12:17:31;;;;;;;8.05;4.20;;;6.40;95.80;;;;;;5059038;28;20114;-68
2021/01/12 12:19:57;;;;;;;6.47;4.35;;;6.40;95.80;;;;;;5055721;28;20067;-68
2021/01/12 12:22:22;;;;;;;5.90;3.92;;;6.40;95.90;;;;;;5051496;28;20491;-68
2021/01/12 12:24:48;;;;;;;6.93;4.55;;;6.40;95.90;;;;;;5050236;28;20037;-69
2021/01/12 12:27:19;;;;;;;6.22;4.50;;;6.40;95.90;;;;;;5055703;28;20033;-68
2021/01/12 12:29:45;;;;;;;7.20;4.70;;;6.50;96.00;;;;;;5065543;28;20102;-68
2021/01/12 12:32:10;;;;;;;6.03;4.10;;;6.50;95.90;;;;;;5053349;28;20029;-68
2021/01/12 12:34:36;;;;;;;6.90;4.90;;;6.60;95.90;;;;;;5051228;28;20040;-68
2021/01/12 12:37:01;;;;;;;6.45;4.13;;;6.60;95.90;;;;;;5056926;28;20537;-68
2021/01/12 12:39:27;;;;;;;6.10;4.22;;;6.60;96.00;;;;;;5068066;28;20032;-68
2021/01/12 12:41:52;;;;;;;5.43;3.92;;;6.60;96.00;;;;;;5054967;28;20513;-68
2021/01/12 12:44:18;;;;;;;6.38;4.50;;;6.60;96.00;;;;;;5053885;28;20090;-69
2021/01/12 12:46:45;;;;;;;6.32;4.00;;;6.60;96.00;;;;;;5050707;28;20056;-69
2021/01/12 12:49:11;;;;;;;6.05;4.03;;;6.60;96.10;;;;;;5052323;28;20074;-68
2021/01/12 12:51:37;;;;;;;7.07;4.78;;;6.60;96.10;;;;;;5050712;28;20017;-68
2021/01/12 12:54:02;;;;;;;6.45;4.43;;;6.60;96.10;;;;;;5057391;28;20033;-68
2021/01/12 12:56:28;;;;;;;7.40;5.00;;;6.70;96.20;;;;;;5068959;28;20043;-68
2021/01/12 12:58:54;;;;;;;7.53;4.75;;;6.60;96.20;;;;;;5055243;28;20031;-67
2021/01/12 13:01:20;;;;;;;5.90;4.75;;;6.70;96.20;;;;;;5063546;28;20029;-67
2021/01/12 13:03:46;;;;;;;6.43;4.30;;;6.70;96.20;;;;;;5065503;28;20021;-68
2021/01/12 13:06:12;;;;;;;6.43;4.07;;;6.70;96.10;;;;;;5074140;28;20397;-68
2021/01/12 13:08:37;;;;;;;8.05;4.63;;;6.70;96.10;;;;;;5083699;28;20029;-67
2021/01/12 13:11:05;;;;;;;6.90;5.10;;;6.70;96.10;;;;;;5058522;28;20028;-69
2021/01/12 13:13:32;;;;;;;6.53;4.47;;;6.70;96.10;;;;;;5069724;28;20040;-68
2021/01/12 13:15:59;;;;;;;8.30;4.50;;;6.80;96.20;;;;;;5062575;28;20025;-68
2021/01/12 13:18:26;;;;;;;6.38;4.53;;;6.70;96.20;;;;;;5054957;28;20524;-68
2021/01/12 13:20:53;;;;;;;7.15;4.25;;;6.70;96.20;;;;;;5062321;28;20097;-67
2021/01/12 13:23:19;;;;;;;5.85;4.20;;;6.80;96.20;;;;;;5071649;28;20024;-67
2021/01/12 13:25:46;;;;;;;8.57;4.85;;;6.80;96.20;;;;;;5054966;28;20124;-67
2021/01/12 13:28:12;;;;;;;7.63;4.57;;;6.80;96.30;;;;;;5054016;28;20085;-67
2021/01/12 13:30:38;;;;;;;6.20;4.45;;;6.80;96.20;;;;;;5052644;28;20029;-67
2021/01/12 13:33:04;;;;;;;7.57;4.85;;;6.80;96.20;;;;;;5063411;28;20032;-67
2021/01/12 13:35:29;;;;;;;6.85;4.50;;;6.80;96.30;;;;;;5064003;28;20513;-67
2021/01/12 13:37:55;;;;;;;6.13;4.45;;;6.80;96.30;;;;;;5055863;28;20025;-67
2021/01/12 13:40:20;;;;;;;8.07;4.60;;;6.80;96.30;;;;;;5054351;28;20039;-67
2021/01/12 13:42:50;;;;;;;7.20;4.50;;;6.80;96.30;;;;;;5054207;28;20033;-67
2021/01/12 13:45:17;;;;;;;7.88;4.60;;;6.80;96.40;;;;;;5059539;28;20045;-68
2021/01/12 13:47:43;;;;;;;9.35;5.35;;;6.80;96.40;;;;;;5072253;28;20437;-68
2021/01/12 13:50:10;;;;;;;11.20;5.80;;;6.80;96.50;;;;;;5068623;28;20045;-68
2021/01/12 13:52:36;;;;;;;7.63;5.15;;;6.90;96.50;;;;;;5054080;28;20396;-69
2021/01/12 13:55:02;;;;;;;8.18;4.68;;;6.80;96.50;;;;;;5065711;28;20032;-69
2021/01/12 13:57:34;;;;;;;9.35;5.28;;;6.80;96.50;;;;;;5067625;28;20021;-68
2021/01/12 14:00:01;;;;;;;7.55;4.65;;;6.80;96.60;;;;;;5067510;28;20067;-68
2021/01/12 14:02:28;;;;;;;6.18;4.45;;;6.90;96.60;;;;;;5084525;28;20029;-73
2021/01/12 14:04:55;;;;;;;5.82;4.00;;;6.90;96.50;;;;;;5061433;28;20029;-72
2021/01/12 14:07:21;;;;;;;6.53;4.13;;;6.90;96.60;;;;;;5052922;28;20025;-73
2021/01/12 14:09:48;;;;;;;7.43;4.93;;;6.90;96.50;;;;;;5064056;28;20447;-75
2021/01/12 14:12:15;;;;;;;7.13;4.60;;;6.90;96.50;;;;;;5073711;28;20082;-70
2021/01/12 14:14:43;;;;;;;6.22;4.13;;;6.90;96.60;;;;;;5056749;28;20032;-67
2021/01/12 14:17:11;;;;;;;7.18;4.22;;;6.90;96.50;;;;;;5054543;28;20032;-67
2021/01/12 14:19:38;;;;;;;5.53;4.05;;;6.90;96.50;;;;;;5063278;28;20024;-67
2021/01/12 14:22:08;;;;;;;6.38;4.10;;;6.90;96.50;;;;;;5062763;28;20036;-67
2021/01/12 14:24:34;;;;;;;6.28;4.35;;;6.90;96.50;;;;;;5067534;28;20099;-67
2021/01/12 14:27:00;;;;;;;5.38;3.72;;;6.90;96.50;;;;;;5053463;28;20037;-67
2021/01/12 14:29:26;;;;;;;6.25;4.22;;;7.00;96.50;;;;;;5058528;28;20032;-68
2021/01/12 14:31:53;;;;;;;6.60;4.50;;;7.00;96.50;;;;;;5066213;28;20067;-67
2021/01/12 14:34:19;;;;;;;7.25;4.53;;;7.00;96.50;;;;;;5057369;28;20035;-67
2021/01/12 14:36:50;;;;;;;5.72;4.50;;;6.90;96.50;;;;;;5056014;28;20107;-68
2021/01/12 14:39:27;;;;;;;6.28;4.63;;;6.90;96.50;;;;;;5063334;28;20477;-67
2021/01/12 14:41:55;;;;;;;6.97;4.90;;;6.90;96.50;;;;;;5056724;28;20035;-67
2021/01/12 14:44:25;;;;;;;9.50;5.68;;;6.80;96.50;;;;;;5061853;28;20072;-67
2021/01/12 14:46:53;;;;;;;7.10;4.90;;;6.80;96.60;;;;;;5055425;28;20033;-67
2021/01/12 14:49:19;;;;;;;7.32;4.93;;;6.70;96.60;;;;;;5071064;28;20036;-67
2021/01/12 14:51:44;;;;;;;5.68;4.30;;;6.70;96.60;;;;;;5082702;28;20111;-67
2021/01/12 14:54:10;;;;;;;5.80;4.47;;;6.80;96.60;;;;;;5068414;28;20461;-67
2021/01/12 14:56:36;;;;;;;6.80;4.65;;;6.80;96.50;;;;;;5065575;28;20028;-68
2021/01/12 14:59:02;;;;;;;6.97;4.57;;;6.70;96.50;;;;;;5059346;28;20050;-67
2021/01/12 15:01:41;;;;;;;6.57;4.65;;;6.60;96.60;;;;;;5059667;28;20036;-67
2021/01/12 15:04:07;;;;;;;5.57;3.75;;;6.60;96.70;;;;;;5065828;28;20086;-67
2021/01/12 15:06:32;;;;;;;4.47;3.17;;;6.50;96.40;;;;;;5067953;28;20029;-67
2021/01/12 15:08:58;;;;;;;4.93;2.60;;;6.50;96.40;;;;;;5057833;28;20039;-67
2021/01/12 15:11:23;;;;;;;3.92;2.53;;;6.40;96.30;;;;;;5064897;28;20087;-67
2021/01/12 15:13:49;;;;;;;3.55;2.22;;;6.40;96.30;;;;;;5053240;28;20029;-68
2021/01/12 15:16:15;;;;;;;3.85;2.05;;;6.40;96.30;;;;;;5066970;28;20031;-67
2021/01/12 15:18:41;;;;;;;3.60;2.10;;;6.40;96.30;;;;;;5054161;28;20036;-67
2021/01/12 15:21:06;;;;;;;3.38;2.10;;;6.40;96.20;;;;;;5071004;28;20505;-68
2021/01/12 15:23:32;;;;;;;3.50;2.17;;;6.30;96.10;;;;;;5058655;28;20029;-66